createdAt,value
2023-04-23T00:00:14.976Z,25.17
2023-04-23T00:01:14.536Z,25.17
2023-04-23T00:02:14.767Z,25.17
2023-04-23T00:03:14.686Z,25.17
2023-04-23T00:04:14.791Z,25.17
2023-04-23T00:05:14.683Z,25.17
2023-04-23T00:06:14.602Z,25.17
2023-04-23T00:07:14.613Z,25.17
2023-04-23T00:08:14.612Z,25.17
2023-04-23T00:09:14.618Z,25.16
2023-04-23T00:10:14.686Z,25.16
2023-04-23T00:11:14.666Z,25.17
2023-04-23T00:12:14.643Z,25.16
2023-04-23T00:13:14.690Z,25.17
2023-04-23T00:14:14.739Z,25.16
2023-04-23T00:15:14.821Z,25.16
2023-04-23T00:16:14.879Z,25.17
2023-04-23T00:17:14.908Z,25.16
2023-04-23T00:18:14.962Z,25.16
2023-04-23T00:19:15.026Z,25.17
2023-04-23T00:20:15.100Z,25.17
2023-04-23T00:21:15.147Z,25.17
2023-04-23T00:22:15.190Z,25.17
2023-04-23T00:23:15.260Z,25.17
2023-04-23T00:24:15.331Z,25.17
2023-04-23T00:25:15.391Z,25.16
2023-04-23T00:26:15.422Z,25.16
2023-04-23T00:27:15.464Z,25.17
2023-04-23T00:28:15.619Z,25.16
2023-04-23T00:29:15.514Z,25.16
2023-04-23T00:30:15.524Z,25.16
2023-04-23T00:31:15.587Z,25.17
2023-04-23T00:32:15.532Z,25.16
2023-04-23T00:33:15.542Z,25.17
2023-04-23T00:34:15.563Z,25.17
2023-04-23T00:35:15.590Z,25.17
2023-04-23T00:36:15.597Z,25.17
2023-04-23T00:37:15.606Z,25.17
2023-04-23T00:38:15.641Z,25.17
2023-04-23T00:39:15.689Z,25.17
2023-04-23T00:40:15.787Z,25.17
2023-04-23T00:41:15.834Z,25.17
2023-04-23T00:42:15.891Z,25.17
2023-04-23T00:43:15.939Z,25.17
2023-04-23T00:44:16.001Z,25.16
2023-04-23T00:45:16.112Z,25.16
2023-04-23T00:46:16.176Z,25.17
2023-04-23T00:47:16.308Z,25.17
2023-04-23T00:48:16.242Z,25.17
2023-04-23T00:49:16.307Z,25.17
2023-04-23T00:50:16.440Z,25.17
2023-04-23T00:51:16.424Z,25.17
2023-04-23T00:52:16.504Z,25.17
2023-04-23T00:53:16.650Z,25.17
2023-04-23T00:54:16.605Z,25.17
2023-04-23T00:55:16.680Z,25.17
2023-04-23T00:56:16.762Z,25.17
2023-04-23T00:57:16.826Z,25.16
2023-04-23T00:58:16.941Z,25.17
2023-04-23T00:59:16.921Z,25.17
2023-04-23T01:00:16.963Z,25.16
2023-04-23T01:01:17.052Z,25.16
2023-04-23T01:02:17.145Z,25.17
2023-04-23T01:03:17.322Z,25.17
2023-04-23T01:04:17.485Z,25.18
2023-04-23T01:05:17.290Z,25.17
2023-04-23T01:06:17.353Z,25.16
2023-04-23T01:07:17.410Z,25.16
2023-04-23T01:08:17.480Z,25.15
2023-04-23T01:09:17.537Z,25.16
2023-04-23T01:10:17.587Z,25.16
2023-04-23T01:11:17.638Z,25.16
2023-04-23T01:12:17.732Z,25.16
2023-04-23T01:13:17.789Z,25.16
2023-04-23T01:14:17.844Z,25.16
2023-04-23T01:15:17.917Z,25.16
2023-04-23T01:16:17.971Z,25.16
2023-04-23T01:17:18.027Z,25.16
2023-04-23T01:18:18.066Z,25.16
2023-04-23T01:19:18.114Z,25.15
2023-04-23T01:20:18.181Z,25.15
2023-04-23T01:21:18.252Z,25.15
2023-04-23T01:22:18.303Z,25.16
2023-04-23T01:23:18.354Z,25.15
2023-04-23T01:24:18.439Z,25.16
2023-04-23T01:25:18.479Z,25.15
2023-04-23T01:26:18.554Z,25.15
2023-04-23T01:27:18.600Z,25.16
2023-04-23T01:28:18.696Z,25.16
2023-04-23T01:29:18.730Z,25.16
2023-04-23T01:30:18.792Z,25.16
2023-04-23T01:31:18.873Z,25.17
2023-04-23T01:32:18.924Z,25.16
2023-04-23T01:33:18.962Z,25.16
2023-04-23T01:34:19.011Z,25.16
2023-04-23T01:35:19.093Z,25.16
2023-04-23T01:36:19.152Z,25.16
2023-04-23T01:37:19.221Z,25.17
2023-04-23T01:38:19.274Z,25.16
2023-04-23T01:39:19.283Z,25.16
2023-04-23T01:40:19.309Z,25.17
2023-04-23T01:41:19.270Z,25.16
2023-04-23T01:42:19.325Z,25.16
2023-04-23T01:43:19.315Z,25.17
2023-04-23T01:44:19.344Z,25.17
2023-04-23T01:45:19.423Z,25.17
2023-04-23T01:46:19.507Z,25.18
2023-04-23T01:47:19.631Z,25.16
2023-04-23T01:48:19.546Z,25.17
2023-04-23T01:49:19.597Z,25.17
2023-04-23T01:50:19.588Z,25.17
2023-04-23T01:51:19.587Z,25.18
2023-04-23T01:52:19.625Z,25.18
2023-04-23T01:53:19.630Z,25.17
2023-04-23T01:54:19.650Z,25.18
2023-04-23T01:55:19.670Z,25.18
2023-04-23T01:56:19.647Z,25.17
2023-04-23T01:57:19.652Z,25.17
2023-04-23T01:58:19.740Z,25.17
2023-04-23T01:59:19.781Z,25.17
2023-04-23T02:00:19.854Z,25.17
2023-04-23T02:01:19.922Z,25.17
2023-04-23T02:02:19.992Z,25.17
2023-04-23T02:03:20.191Z,25.16
2023-04-23T02:04:20.304Z,25.16
2023-04-23T02:05:20.156Z,25.16
2023-04-23T02:06:20.206Z,25.16
2023-04-23T02:07:20.267Z,25.16
2023-04-23T02:08:20.315Z,25.15
2023-04-23T02:09:20.385Z,25.16
2023-04-23T02:10:20.476Z,25.16
2023-04-23T02:11:20.534Z,25.17
2023-04-23T02:12:20.580Z,25.16
2023-04-23T02:13:20.673Z,25.16
2023-04-23T02:14:20.687Z,25.16
2023-04-23T02:15:20.825Z,25.17
2023-04-23T02:16:20.762Z,25.17
2023-04-23T02:17:20.774Z,25.16
2023-04-23T02:18:20.782Z,25.17
2023-04-23T02:19:20.811Z,25.18
2023-04-23T02:20:20.801Z,25.17
2023-04-23T02:21:20.829Z,25.17
2023-04-23T02:22:20.828Z,25.17
2023-04-23T02:23:20.857Z,25.16
2023-04-23T02:24:20.864Z,25.17
2023-04-23T02:25:20.860Z,25.17
2023-04-23T02:26:20.906Z,25.16
2023-04-23T02:27:20.950Z,25.16
2023-04-23T02:28:20.934Z,25.16
2023-04-23T02:29:21.570Z,25.16
2023-04-23T02:30:20.962Z,25.15
2023-04-23T02:31:21.050Z,25.16
2023-04-23T02:32:20.984Z,25.16
2023-04-23T02:33:20.985Z,25.15
2023-04-23T02:34:20.997Z,25.16
2023-04-23T02:35:21.004Z,25.16
2023-04-23T02:36:21.030Z,25.15
2023-04-23T02:37:21.062Z,25.16
2023-04-23T02:38:21.036Z,25.16
2023-04-23T02:39:21.078Z,25.16
2023-04-23T02:40:21.107Z,25.16
2023-04-23T02:41:21.104Z,25.16
2023-04-23T02:42:21.102Z,25.15
2023-04-23T02:43:21.106Z,25.16
2023-04-23T02:44:21.130Z,25.16
2023-04-23T02:45:21.134Z,25.16
2023-04-23T02:46:21.212Z,25.16
2023-04-23T02:47:21.185Z,25.15
2023-04-23T02:48:21.174Z,25.15
2023-04-23T02:49:21.221Z,25.15
2023-04-23T02:50:21.251Z,25.15
2023-04-23T02:51:21.205Z,25.15
2023-04-23T02:52:21.239Z,25.15
2023-04-23T02:53:21.253Z,25.15
2023-04-23T02:54:21.285Z,25.15
2023-04-23T02:55:21.303Z,25.15
2023-04-23T02:56:21.298Z,25.15
2023-04-23T02:57:21.309Z,25.15
2023-04-23T02:58:21.360Z,25.14
2023-04-23T02:59:21.426Z,25.15
2023-04-23T03:00:21.466Z,25.15
2023-04-23T03:01:21.575Z,25.15
2023-04-23T03:02:21.742Z,25.15
2023-04-23T03:03:21.778Z,25.15
2023-04-23T03:04:21.753Z,25.16
2023-04-23T03:05:21.775Z,25.16
2023-04-23T03:06:21.841Z,25.15
2023-04-23T03:07:21.937Z,25.16
2023-04-23T03:08:21.971Z,25.15
2023-04-23T03:09:22.012Z,25.15
2023-04-23T03:10:22.136Z,25.16
2023-04-23T03:11:22.134Z,25.16
2023-04-23T03:12:22.183Z,25.16
2023-04-23T03:13:22.239Z,25.16
2023-04-23T03:14:22.230Z,25.16
2023-04-23T03:15:22.273Z,25.15
2023-04-23T03:16:22.376Z,25.15
2023-04-23T03:17:22.308Z,25.15
2023-04-23T03:18:22.296Z,25.15
2023-04-23T03:19:22.310Z,25.14
2023-04-23T03:20:22.322Z,25.15
2023-04-23T03:21:22.342Z,25.15
2023-04-23T03:22:22.382Z,25.15
2023-04-23T03:23:22.385Z,25.14
2023-04-23T03:24:22.394Z,25.15
2023-04-23T03:25:22.424Z,25.15
2023-04-23T03:26:22.439Z,25.15
2023-04-23T03:27:22.442Z,25.15
2023-04-23T03:28:22.420Z,25.15
2023-04-23T03:29:22.471Z,25.15
2023-04-23T03:30:22.469Z,25.14
2023-04-23T03:31:22.488Z,25.14
2023-04-23T03:32:22.525Z,25.14
2023-04-23T03:33:22.491Z,25.14
2023-04-23T03:34:22.522Z,25.14
2023-04-23T03:35:22.546Z,25.14
2023-04-23T03:36:22.564Z,25.14
2023-04-23T03:37:22.616Z,25.14
2023-04-23T03:38:22.667Z,25.14
2023-04-23T03:39:22.731Z,25.14
2023-04-23T03:40:22.892Z,25.14
2023-04-23T03:41:22.845Z,25.14
2023-04-23T03:42:22.928Z,25.14
2023-04-23T03:43:22.955Z,25.14
2023-04-23T03:44:23.042Z,25.14
2023-04-23T03:45:23.138Z,25.15
2023-04-23T03:46:23.214Z,25.14
2023-04-23T03:47:23.232Z,25.15
2023-04-23T03:48:23.225Z,25.14
2023-04-23T03:49:23.204Z,25.16
2023-04-23T03:50:23.232Z,25.15
2023-04-23T03:51:23.237Z,25.15
2023-04-23T03:52:23.203Z,25.16
2023-04-23T03:53:23.161Z,25.16
2023-04-23T03:54:23.188Z,25.15
2023-04-23T03:55:23.184Z,25.15
2023-04-23T03:56:25.142Z,25.15
2023-04-23T03:57:23.150Z,25.15
2023-04-23T03:58:23.151Z,25.15
2023-04-23T03:59:23.146Z,25.15
2023-04-23T04:00:23.151Z,25.14
2023-04-23T04:01:23.129Z,25.14
2023-04-23T04:02:23.327Z,25.14
2023-04-23T04:03:23.347Z,25.14
2023-04-23T04:04:23.384Z,25.14
2023-04-23T04:05:23.161Z,25.14
2023-04-23T04:06:23.113Z,25.15
2023-04-23T04:07:23.117Z,25.15
2023-04-23T04:08:23.097Z,25.14
2023-04-23T04:09:23.087Z,25.15
2023-04-23T04:10:23.084Z,25.15
2023-04-23T04:11:23.068Z,25.15
2023-04-23T04:12:23.049Z,25.14
2023-04-23T04:13:23.060Z,25.15
2023-04-23T04:14:23.058Z,25.15
2023-04-23T04:15:23.019Z,25.15
2023-04-23T04:16:23.052Z,25.16
2023-04-23T04:17:23.067Z,25.15
2023-04-23T04:18:23.044Z,25.15
2023-04-23T04:19:23.016Z,25.15
2023-04-23T04:20:23.002Z,25.15
2023-04-23T04:21:23.017Z,25.15
2023-04-23T04:22:22.992Z,25.14
2023-04-23T04:23:23.031Z,25.15
2023-04-23T04:24:24.369Z,25.16
2023-04-23T04:25:22.976Z,25.15
2023-04-23T04:26:23.013Z,25.14
2023-04-23T04:27:22.947Z,25.15
2023-04-23T04:28:22.947Z,25.14
2023-04-23T04:29:22.985Z,25.14
2023-04-23T04:30:22.944Z,25.14
2023-04-23T04:31:22.975Z,25.15
2023-04-23T04:32:22.946Z,25.14
2023-04-23T04:33:22.934Z,25.15
2023-04-23T04:34:22.919Z,25.14
2023-04-23T04:35:22.893Z,25.15
2023-04-23T04:36:22.896Z,25.15
2023-04-23T04:37:22.900Z,25.15
2023-04-23T04:38:22.870Z,25.15
2023-04-23T04:39:22.929Z,25.15
2023-04-23T04:40:22.873Z,25.15
2023-04-23T04:41:22.868Z,25.15
2023-04-23T04:42:22.848Z,25.15
2023-04-23T04:43:22.830Z,25.15
2023-04-23T04:44:22.857Z,25.14
2023-04-23T04:45:22.811Z,25.14
2023-04-23T04:46:22.841Z,25.13
2023-04-23T04:47:22.898Z,25.15
2023-04-23T04:48:22.801Z,25.14
2023-04-23T04:49:22.797Z,25.14
2023-04-23T04:50:22.767Z,25.14
2023-04-23T04:51:22.798Z,25.14
2023-04-23T04:52:22.768Z,25.14
2023-04-23T04:53:22.771Z,25.14
2023-04-23T04:54:22.764Z,25.14
2023-04-23T04:55:22.750Z,25.14
2023-04-23T04:56:22.737Z,25.14
2023-04-23T04:57:22.779Z,25.14
2023-04-23T04:58:22.734Z,25.14
2023-04-23T04:59:22.705Z,25.14
2023-04-23T05:00:22.739Z,25.13
2023-04-23T05:01:22.735Z,25.14
2023-04-23T05:02:22.811Z,25.14
2023-04-23T05:03:22.830Z,25.14
2023-04-23T05:04:22.745Z,25.15
2023-04-23T05:05:22.660Z,25.14
2023-04-23T05:06:22.710Z,25.15
2023-04-23T05:07:22.668Z,25.15
2023-04-23T05:08:22.673Z,25.15
2023-04-23T05:09:22.663Z,25.15
2023-04-23T05:10:22.685Z,25.15
2023-04-23T05:11:22.661Z,25.15
2023-04-23T05:12:22.650Z,25.14
2023-04-23T05:13:22.632Z,25.15
2023-04-23T05:14:22.641Z,25.15
2023-04-23T05:15:22.626Z,25.16
2023-04-23T05:16:22.682Z,25.15
2023-04-23T05:17:22.648Z,25.15
2023-04-23T05:18:22.575Z,25.15
2023-04-23T05:19:22.560Z,25.16
2023-04-23T05:20:22.575Z,25.16
2023-04-23T05:21:22.621Z,25.16
2023-04-23T05:22:22.568Z,25.16
2023-04-23T05:23:22.580Z,25.17
2023-04-23T05:24:22.554Z,25.17
2023-04-23T05:25:22.564Z,25.17
2023-04-23T05:26:22.526Z,25.17
2023-04-23T05:27:22.537Z,25.17
2023-04-23T05:28:22.567Z,25.16
2023-04-23T05:29:22.640Z,25.16
2023-04-23T05:30:22.712Z,25.16
2023-04-23T05:31:22.861Z,25.16
2023-04-23T05:32:22.890Z,25.16
2023-04-23T05:33:22.893Z,25.17
2023-04-23T05:34:22.941Z,25.16
2023-04-23T05:35:23.046Z,25.16
2023-04-23T05:36:23.099Z,25.17
2023-04-23T05:37:23.138Z,25.16
2023-04-23T05:38:23.198Z,25.17
2023-04-23T05:39:23.285Z,25.17
2023-04-23T05:40:23.339Z,25.16
2023-04-23T05:41:23.348Z,25.16
2023-04-23T05:42:23.396Z,25.16
2023-04-23T05:43:23.363Z,25.16
2023-04-23T05:44:23.361Z,25.16
2023-04-23T05:45:23.406Z,25.16
2023-04-23T05:46:23.480Z,25.16
2023-04-23T05:47:23.462Z,25.16
2023-04-23T05:48:23.467Z,25.16
2023-04-23T05:49:23.554Z,25.15
2023-04-23T05:50:23.615Z,25.16
2023-04-23T05:51:23.658Z,25.17
2023-04-23T05:52:23.739Z,25.17
2023-04-23T05:53:23.848Z,25.18
2023-04-23T05:54:23.829Z,25.18
2023-04-23T05:55:23.898Z,25.18
2023-04-23T05:56:23.969Z,25.18
2023-04-23T05:57:24.052Z,25.17
2023-04-23T05:58:24.141Z,25.17
2023-04-23T05:59:24.114Z,25.17
2023-04-23T06:00:24.118Z,25.18
2023-04-23T06:01:24.150Z,25.17
2023-04-23T06:02:25.116Z,25.18
2023-04-23T06:03:24.250Z,25.18
2023-04-23T06:04:24.466Z,25.17
2023-04-23T06:05:24.287Z,25.18
2023-04-23T06:06:24.176Z,25.18
2023-04-23T06:07:24.192Z,25.17
2023-04-23T06:08:25.327Z,25.17
2023-04-23T06:09:24.220Z,25.16
2023-04-23T06:10:24.289Z,25.17
2023-04-23T06:11:24.251Z,25.17
2023-04-23T06:12:24.250Z,25.17
2023-04-23T06:13:24.296Z,25.16
2023-04-23T06:14:24.364Z,25.17
2023-04-23T06:15:24.444Z,25.17
2023-04-23T06:16:24.531Z,25.18
2023-04-23T06:17:24.531Z,25.17
2023-04-23T06:18:24.570Z,25.17
2023-04-23T06:19:24.646Z,25.17
2023-04-23T06:20:24.717Z,25.17
2023-04-23T06:21:24.777Z,25.17
2023-04-23T06:22:24.803Z,25.17
2023-04-23T06:23:24.879Z,25.17
2023-04-23T06:24:24.945Z,25.17
2023-04-23T06:25:25.101Z,25.17
2023-04-23T06:26:25.077Z,25.18
2023-04-23T06:27:25.057Z,25.18
2023-04-23T06:28:25.088Z,25.19
2023-04-23T06:29:25.135Z,25.19
2023-04-23T06:30:25.195Z,25.18
2023-04-23T06:31:25.241Z,25.18
2023-04-23T06:32:25.256Z,25.19
2023-04-23T06:33:25.207Z,25.20
2023-04-23T06:34:25.265Z,25.20
2023-04-23T06:35:25.331Z,25.20
2023-04-23T06:36:25.361Z,25.19
2023-04-23T06:37:25.617Z,25.20
2023-04-23T06:38:25.567Z,25.19
2023-04-23T06:39:25.542Z,25.19
2023-04-23T06:40:25.641Z,25.20
2023-04-23T06:41:25.661Z,25.20
2023-04-23T06:42:25.691Z,25.19
2023-04-23T06:43:25.689Z,25.20
2023-04-23T06:44:25.703Z,25.19
2023-04-23T06:45:25.746Z,25.19
2023-04-23T06:46:25.829Z,25.20
2023-04-23T06:47:25.900Z,25.19
2023-04-23T06:48:25.948Z,25.20
2023-04-23T06:49:25.971Z,25.19
2023-04-23T06:50:26.029Z,25.20
2023-04-23T06:51:26.085Z,25.19
2023-04-23T06:52:26.178Z,25.19
2023-04-23T06:53:26.200Z,25.19
2023-04-23T06:54:26.213Z,25.19
2023-04-23T06:55:26.389Z,25.19
2023-04-23T06:56:26.314Z,25.19
2023-04-23T06:57:26.349Z,25.19
2023-04-23T06:58:26.428Z,25.19
2023-04-23T06:59:26.490Z,25.19
2023-04-23T07:00:26.609Z,25.18
2023-04-23T07:01:26.791Z,25.18
2023-04-23T07:02:26.764Z,25.18
2023-04-23T07:03:26.735Z,25.18
2023-04-23T07:04:26.848Z,25.18
2023-04-23T07:05:26.844Z,25.18
2023-04-23T07:06:26.906Z,25.18
2023-04-23T07:07:26.998Z,25.18
2023-04-23T07:08:27.021Z,25.18
2023-04-23T07:09:27.096Z,25.18
2023-04-23T07:10:27.151Z,25.18
2023-04-23T07:11:27.198Z,25.18
2023-04-23T07:12:27.270Z,25.18
2023-04-23T07:13:27.310Z,25.18
2023-04-23T07:14:27.387Z,25.18
2023-04-23T07:15:27.527Z,25.18
2023-04-23T07:16:27.521Z,25.18
2023-04-23T07:17:27.595Z,25.19
2023-04-23T07:18:27.612Z,25.19
2023-04-23T07:19:27.684Z,25.19
2023-04-23T07:20:27.743Z,25.19
2023-04-23T07:21:27.808Z,25.19
2023-04-23T07:22:29.428Z,25.19
2023-04-23T07:23:28.023Z,25.20
2023-04-23T07:24:28.071Z,25.20
2023-04-23T07:25:28.143Z,25.21
2023-04-23T07:26:28.300Z,25.20
2023-04-23T07:27:28.235Z,25.21
2023-04-23T07:28:28.317Z,25.21
2023-04-23T07:29:28.352Z,25.21
2023-04-23T07:30:28.434Z,25.21
2023-04-23T07:31:28.468Z,25.21
2023-04-23T07:32:28.585Z,25.22
2023-04-23T07:33:28.597Z,25.22
2023-04-23T07:34:28.663Z,25.23
2023-04-23T07:35:28.704Z,25.23
2023-04-23T07:36:28.728Z,25.24
2023-04-23T07:37:28.804Z,25.24
2023-04-23T07:38:28.857Z,25.24
2023-04-23T07:39:28.930Z,25.24
2023-04-23T07:40:28.995Z,25.25
2023-04-23T07:41:28.985Z,25.26
2023-04-23T07:42:29.040Z,25.27
2023-04-23T07:43:28.997Z,25.26
2023-04-23T07:44:28.992Z,25.27
2023-04-23T07:45:29.006Z,25.27
2023-04-23T07:46:29.062Z,25.28
2023-04-23T07:47:29.117Z,25.29
2023-04-23T07:48:29.136Z,25.29
2023-04-23T07:49:29.163Z,25.29
2023-04-23T07:50:29.405Z,25.29
2023-04-23T07:51:29.284Z,25.30
2023-04-23T07:52:29.316Z,25.30
2023-04-23T07:53:29.320Z,25.31
2023-04-23T07:54:29.352Z,25.32
2023-04-23T07:55:29.343Z,25.32
2023-04-23T07:56:29.357Z,25.33
2023-04-23T07:57:29.381Z,25.33
2023-04-23T07:58:29.414Z,25.34
2023-04-23T07:59:29.457Z,25.34
2023-04-23T08:00:29.520Z,25.34
2023-04-23T08:01:29.548Z,25.36
2023-04-23T08:02:29.684Z,25.36
2023-04-23T08:03:29.914Z,25.37
2023-04-23T08:04:29.884Z,25.37
2023-04-23T08:05:29.912Z,25.38
2023-04-23T08:06:29.921Z,25.39
2023-04-23T08:07:29.887Z,25.40
2023-04-23T08:08:29.889Z,25.40
2023-04-23T08:09:29.906Z,25.41
2023-04-23T08:10:29.918Z,25.42
2023-04-23T08:11:29.921Z,25.43
2023-04-23T08:12:29.883Z,25.43
2023-04-23T08:13:29.883Z,25.44
2023-04-23T08:14:29.928Z,25.47
2023-04-23T08:15:29.888Z,25.47
2023-04-23T08:16:30.907Z,25.48
2023-04-23T08:17:29.929Z,25.50
2023-04-23T08:18:29.876Z,25.52
2023-04-23T08:19:29.900Z,25.53
2023-04-23T08:20:29.869Z,25.54
2023-04-23T08:21:29.886Z,25.56
2023-04-23T08:22:29.885Z,25.59
2023-04-23T08:23:29.870Z,25.60
2023-04-23T08:24:29.880Z,25.60
2023-04-23T08:25:29.971Z,25.62
2023-04-23T08:26:29.921Z,25.64
2023-04-23T08:27:29.920Z,25.66
2023-04-23T08:28:29.921Z,25.68
2023-04-23T08:29:29.947Z,25.70
2023-04-23T08:30:30.000Z,25.72
2023-04-23T08:31:30.094Z,25.72
2023-04-23T08:32:30.077Z,25.74
2023-04-23T08:33:30.122Z,25.75
2023-04-23T08:34:30.193Z,25.76
2023-04-23T08:35:30.279Z,25.78
2023-04-23T08:36:30.292Z,25.79
2023-04-23T08:37:31.576Z,25.80
2023-04-23T08:38:30.315Z,25.82
2023-04-23T08:39:30.320Z,25.83
2023-04-23T08:40:30.378Z,25.85
2023-04-23T08:41:30.408Z,25.86
2023-04-23T08:42:30.415Z,25.87
2023-04-23T08:43:30.402Z,25.88
2023-04-23T08:44:30.431Z,25.90
2023-04-23T08:45:30.479Z,25.91
2023-04-23T08:46:30.511Z,25.92
2023-04-23T08:47:30.567Z,25.92
2023-04-23T08:48:30.626Z,25.94
2023-04-23T08:49:30.725Z,25.95
2023-04-23T08:50:30.750Z,25.95
2023-04-23T08:51:30.787Z,25.96
2023-04-23T08:52:30.843Z,25.97
2023-04-23T08:53:30.905Z,25.98
2023-04-23T08:54:30.960Z,25.99
2023-04-23T08:55:31.028Z,26.00
2023-04-23T08:56:31.054Z,26.00
2023-04-23T08:57:31.059Z,26.01
2023-04-23T08:58:31.074Z,26.01
2023-04-23T08:59:31.080Z,26.02
2023-04-23T09:00:31.157Z,26.03
2023-04-23T09:01:31.094Z,26.04
2023-04-23T09:02:31.190Z,26.04
2023-04-23T09:03:31.171Z,26.05
2023-04-23T09:04:31.103Z,26.06
2023-04-23T09:05:31.113Z,26.06
2023-04-23T09:06:31.093Z,26.07
2023-04-23T09:07:31.225Z,26.07
2023-04-23T09:08:31.109Z,26.08
2023-04-23T09:09:31.074Z,26.09
2023-04-23T09:10:31.084Z,26.09
2023-04-23T09:11:31.087Z,26.10
2023-04-23T09:12:31.064Z,26.11
2023-04-23T09:13:31.090Z,26.11
2023-04-23T09:14:31.090Z,26.13
2023-04-23T09:15:31.108Z,26.13
2023-04-23T09:16:31.115Z,26.14
2023-04-23T09:17:31.121Z,26.14
2023-04-23T09:18:31.086Z,26.14
2023-04-23T09:19:31.092Z,26.15
2023-04-23T09:20:31.045Z,26.15
2023-04-23T09:21:31.160Z,26.16
2023-04-23T09:22:31.066Z,26.17
2023-04-23T09:23:31.067Z,26.17
2023-04-23T09:24:31.748Z,26.17
2023-04-23T09:25:31.089Z,26.17
2023-04-23T09:26:31.758Z,26.18
2023-04-23T09:27:31.094Z,26.18
2023-04-23T09:28:31.079Z,26.19
2023-04-23T09:29:31.120Z,26.19
2023-04-23T09:30:31.064Z,26.19
2023-04-23T09:31:31.124Z,26.20
2023-04-23T09:32:31.110Z,26.20
2023-04-23T09:33:31.110Z,26.21
2023-04-23T09:34:31.122Z,26.21
2023-04-23T09:35:31.135Z,26.22
2023-04-23T09:36:31.194Z,26.22
2023-04-23T09:37:31.223Z,26.22
2023-04-23T09:38:31.238Z,26.23
2023-04-23T09:39:31.258Z,26.23
2023-04-23T09:40:31.286Z,26.24
2023-04-23T09:41:31.323Z,26.25
2023-04-23T09:42:31.343Z,26.25
2023-04-23T09:43:31.430Z,26.25
2023-04-23T09:44:31.435Z,26.26
2023-04-23T09:45:31.498Z,26.27
2023-04-23T09:46:31.613Z,26.28
2023-04-23T09:47:31.564Z,26.28
2023-04-23T09:48:31.594Z,26.29
2023-04-23T09:49:31.628Z,26.29
2023-04-23T09:50:31.705Z,26.30
2023-04-23T09:51:31.754Z,26.30
2023-04-23T09:52:31.790Z,26.31
2023-04-23T09:53:31.832Z,26.31
2023-04-23T09:54:31.884Z,26.32
2023-04-23T09:55:31.980Z,26.33
2023-04-23T09:56:32.032Z,26.32
2023-04-23T09:57:32.057Z,26.33
2023-04-23T09:58:32.096Z,26.34
2023-04-23T09:59:47.052Z,26.34
2023-04-23T10:00:33.114Z,26.34
2023-04-23T10:01:32.164Z,26.35
2023-04-23T10:02:32.160Z,26.36
2023-04-23T10:03:32.173Z,26.36
2023-04-23T10:04:32.179Z,26.36
2023-04-23T10:05:41.040Z,26.36
2023-04-23T10:07:32.037Z,26.37
2023-04-23T10:08:32.068Z,26.37
2023-04-23T10:09:32.043Z,26.38
2023-04-23T10:10:32.196Z,26.38
2023-04-23T10:11:32.013Z,26.39
2023-04-23T10:12:50.223Z,26.38
2023-04-23T10:13:32.983Z,26.39
2023-04-23T10:14:32.010Z,26.40
2023-04-23T10:15:32.021Z,26.40
2023-04-23T10:16:42.082Z,26.41
2023-04-23T10:17:32.986Z,26.40
2023-04-23T10:18:31.991Z,26.40
2023-04-23T10:19:31.969Z,26.41
2023-04-23T10:20:31.990Z,26.41
2023-04-23T10:21:39.684Z,26.42
2023-04-23T10:22:32.946Z,26.42
2023-04-23T10:23:31.943Z,26.43
2023-04-23T10:24:31.904Z,26.44
2023-04-23T10:25:31.910Z,26.44
2023-04-23T10:26:31.912Z,26.45
2023-04-23T10:27:40.397Z,26.45
2023-04-23T10:28:32.918Z,26.45
2023-04-23T10:29:31.899Z,26.46
2023-04-23T10:30:31.892Z,26.46
2023-04-23T10:31:31.914Z,26.46
2023-04-23T10:32:31.973Z,26.46
2023-04-23T10:33:37.336Z,26.46
2023-04-23T10:34:32.927Z,26.47
2023-04-23T10:35:31.856Z,26.47
2023-04-23T10:36:31.941Z,26.47
2023-04-23T10:37:31.850Z,26.47
2023-04-23T10:38:31.890Z,26.47
2023-04-23T10:39:31.851Z,26.47
2023-04-23T10:40:31.835Z,26.47
2023-04-23T10:41:31.881Z,26.47
2023-04-23T10:42:31.817Z,26.48
2023-04-23T10:43:31.801Z,26.48
2023-04-23T10:44:50.246Z,26.48
2023-04-23T10:45:32.800Z,26.47
2023-04-23T10:46:31.859Z,26.47
2023-04-23T10:47:31.806Z,26.48
2023-04-23T10:48:31.810Z,26.47
2023-04-23T10:49:31.766Z,26.48
2023-04-23T10:50:31.749Z,26.49
2023-04-23T10:52:05.803Z,26.49
2023-04-23T10:52:32.771Z,26.49
2023-04-23T10:53:31.759Z,26.49
2023-04-23T10:54:31.754Z,26.50
2023-04-23T10:55:31.740Z,26.50
2023-04-23T10:56:31.741Z,26.51
2023-04-23T10:57:31.739Z,26.51
2023-04-23T10:58:31.729Z,26.51
2023-04-23T10:59:31.719Z,26.51
2023-04-23T11:00:31.732Z,26.51
2023-04-23T11:01:31.914Z,26.53
2023-04-23T11:02:31.982Z,26.53
2023-04-23T11:03:32.214Z,26.53
2023-04-23T11:04:32.113Z,26.53
2023-04-23T11:05:32.035Z,26.53
2023-04-23T11:06:32.058Z,26.53
2023-04-23T11:07:32.099Z,26.54
2023-04-23T11:08:32.085Z,26.54
2023-04-23T11:09:32.070Z,26.55
2023-04-23T11:10:32.121Z,26.54
2023-04-23T11:11:32.191Z,26.54
2023-04-23T11:12:32.234Z,26.54
2023-04-23T11:13:32.307Z,26.55
2023-04-23T11:14:32.293Z,26.56
2023-04-23T11:15:32.302Z,26.56
2023-04-23T11:16:32.389Z,26.55
2023-04-23T11:17:32.342Z,26.56
2023-04-23T11:18:32.342Z,26.56
2023-04-23T11:19:32.356Z,26.57
2023-04-23T11:20:32.359Z,26.57
2023-04-23T11:21:32.331Z,26.56
2023-04-23T11:22:32.333Z,26.57
2023-04-23T11:23:32.389Z,26.57
2023-04-23T11:24:32.368Z,26.56
2023-04-23T11:25:32.476Z,26.56
2023-04-23T11:26:32.445Z,26.57
2023-04-23T11:27:32.528Z,26.57
2023-04-23T11:28:32.558Z,26.58
2023-04-23T11:29:32.658Z,26.58
2023-04-23T11:30:32.645Z,26.58
2023-04-23T11:31:32.780Z,26.59
2023-04-23T11:32:32.807Z,26.59
2023-04-23T11:33:32.836Z,26.59
2023-04-23T11:34:32.868Z,26.59
2023-04-23T11:35:32.916Z,26.59
2023-04-23T11:36:32.971Z,26.59
2023-04-23T11:37:33.028Z,26.59
2023-04-23T11:38:33.079Z,26.60
2023-04-23T11:39:33.090Z,26.59
2023-04-23T11:40:33.183Z,26.60
2023-04-23T11:41:33.234Z,26.60
2023-04-23T11:42:33.275Z,26.59
2023-04-23T11:43:33.325Z,26.60
2023-04-23T11:44:33.385Z,26.60
2023-04-23T11:45:33.422Z,26.60
2023-04-23T11:46:33.538Z,26.60
2023-04-23T11:47:33.510Z,26.61
2023-04-23T11:48:33.502Z,26.61
2023-04-23T11:49:33.479Z,26.61
2023-04-23T11:50:33.794Z,26.60
2023-04-23T11:51:33.516Z,26.61
2023-04-23T11:52:33.532Z,26.61
2023-04-23T11:53:33.584Z,26.60
2023-04-23T11:54:33.661Z,26.61
2023-04-23T11:55:33.705Z,26.60
2023-04-23T11:56:33.746Z,26.60
2023-04-23T11:57:33.793Z,26.59
2023-04-23T11:58:33.821Z,26.60
2023-04-23T11:59:33.884Z,26.60
2023-04-23T12:00:33.893Z,26.60
2023-04-23T12:01:33.978Z,26.59
2023-04-23T12:02:34.137Z,26.60
2023-04-23T12:03:34.259Z,26.59
2023-04-23T12:04:34.176Z,26.60
2023-04-23T12:05:34.211Z,26.59
2023-04-23T12:06:34.180Z,26.59
2023-04-23T12:07:34.172Z,26.59
2023-04-23T12:08:34.201Z,26.59
2023-04-23T12:09:34.182Z,26.59
2023-04-23T12:10:34.250Z,26.58
2023-04-23T12:11:34.212Z,26.57
2023-04-23T12:12:34.214Z,26.57
2023-04-23T12:13:34.301Z,26.57
2023-04-23T12:14:34.225Z,26.57
2023-04-23T12:15:34.296Z,26.57
2023-04-23T12:16:34.286Z,26.57
2023-04-23T12:17:34.303Z,26.57
2023-04-23T12:18:34.335Z,26.57
2023-04-23T12:19:34.349Z,26.57
2023-04-23T12:20:34.397Z,26.57
2023-04-23T12:21:34.462Z,26.57
2023-04-23T12:22:34.502Z,26.57
2023-04-23T12:23:34.573Z,26.57
2023-04-23T12:24:34.637Z,26.57
2023-04-23T12:25:34.703Z,26.56
2023-04-23T12:26:34.783Z,26.56
2023-04-23T12:27:34.808Z,26.56
2023-04-23T12:28:34.867Z,26.55
2023-04-23T12:29:34.914Z,26.56
2023-04-23T12:30:34.981Z,26.55
2023-04-23T12:31:35.124Z,26.55
2023-04-23T12:32:35.137Z,26.55
2023-04-23T12:33:35.166Z,26.55
2023-04-23T12:34:35.198Z,26.54
2023-04-23T12:35:35.297Z,26.54
2023-04-23T12:36:35.349Z,26.54
2023-04-23T12:37:35.392Z,26.53
2023-04-23T12:38:35.463Z,26.53
2023-04-23T12:39:35.512Z,26.53
2023-04-23T12:40:35.576Z,26.53
2023-04-23T12:41:35.645Z,26.53
2023-04-23T12:42:35.702Z,26.54
2023-04-23T12:43:35.760Z,26.54
2023-04-23T12:44:35.842Z,26.53
2023-04-23T12:45:35.897Z,26.52
2023-04-23T12:46:35.948Z,26.52
2023-04-23T12:47:36.058Z,26.52
2023-04-23T12:48:36.072Z,26.52
2023-04-23T12:49:36.185Z,26.52
2023-04-23T12:50:36.185Z,26.51
2023-04-23T12:51:36.243Z,26.50
2023-04-23T12:52:36.306Z,26.49
2023-04-23T12:53:36.345Z,26.48